createdAt,value
2022-10-02T00:01:20.041Z,6.28
2022-10-02T00:06:49.135Z,6.63
2022-10-02T00:12:17.814Z,6.32
2022-10-02T00:17:46.033Z,6.47
2022-10-02T00:23:19.075Z,6.85
2022-10-02T00:28:50.430Z,7.72
2022-10-02T00:34:27.126Z,9.63
2022-10-02T00:40:04.258Z,10.88
2022-10-02T00:45:46.201Z,10.73
2022-10-02T00:51:21.336Z,12.80
2022-10-02T00:56:53.979Z,14.52
2022-10-02T01:02:45.862Z,15.27
2022-10-02T01:08:09.792Z,15.50
2022-10-02T01:13:35.561Z,16.83
2022-10-02T01:19:00.215Z,15.13
2022-10-02T01:24:30.788Z,14.60
2022-10-02T01:30:01.197Z,16.10
2022-10-02T01:35:32.643Z,14.10
2022-10-02T01:40:57.245Z,14.13
2022-10-02T01:46:32.576Z,14.43
2022-10-02T01:52:11.538Z,14.57
2022-10-02T01:57:55.348Z,14.80
2022-10-02T02:03:25.211Z,16.42
2022-10-02T02:09:02.165Z,17.25
2022-10-02T02:14:34.472Z,17.20
2022-10-02T02:20:03.864Z,16.88
2022-10-02T02:25:33.257Z,18.98
2022-10-02T02:30:59.265Z,17.33
2022-10-02T02:36:30.031Z,16.83
2022-10-02T02:42:01.163Z,14.60
2022-10-02T02:47:30.272Z,13.98
2022-10-02T02:53:03.168Z,13.23
2022-10-02T02:58:32.594Z,13.85
2022-10-02T03:03:57.112Z,15.55
2022-10-02T03:09:25.504Z,14.55
2022-10-02T03:15:13.675Z,15.45
2022-10-02T03:20:44.145Z,15.43
2022-10-02T03:26:17.788Z,14.63
2022-10-02T03:31:43.544Z,14.05
2022-10-02T03:37:09.097Z,13.30
2022-10-02T03:42:36.850Z,12.60
2022-10-02T03:48:01.258Z,11.30
2022-10-02T03:53:30.837Z,11.23
2022-10-02T03:59:01.598Z,10.77
2022-10-02T04:04:30.745Z,10.32
2022-10-02T04:15:31.988Z,8.70
2022-10-02T04:21:01.205Z,8.43
2022-10-02T04:26:31.024Z,8.02
2022-10-02T04:32:08.373Z,7.57
2022-10-02T04:37:46.349Z,8.25
2022-10-02T04:43:23.339Z,7.57
2022-10-02T04:49:05.463Z,8.35
2022-10-02T04:54:53.108Z,10.32
2022-10-02T05:00:20.981Z,11.40
2022-10-02T05:06:07.146Z,11.57
2022-10-02T05:11:45.509Z,11.75
2022-10-02T05:17:27.511Z,11.88
2022-10-02T05:23:16.667Z,10.13
2022-10-02T05:28:58.965Z,9.27
2022-10-02T05:34:35.839Z,8.20
2022-10-02T05:40:10.557Z,6.23
2022-10-02T05:45:38.965Z,4.70
2022-10-02T05:51:08.072Z,4.63
2022-10-02T05:56:41.973Z,4.75
2022-10-02T06:02:18.750Z,4.60
2022-10-02T06:07:48.379Z,5.03
2022-10-02T06:13:22.712Z,4.88
2022-10-02T06:18:52.260Z,4.47
2022-10-02T06:24:26.336Z,4.38
2022-10-02T06:29:55.485Z,4.18
2022-10-02T06:35:33.379Z,4.50
2022-10-02T06:41:08.697Z,4.32
2022-10-02T06:46:43.176Z,4.50
2022-10-02T06:52:20.253Z,4.25
2022-10-02T06:58:01.272Z,4.15
2022-10-02T07:03:49.527Z,4.35
2022-10-02T07:09:53.136Z,4.37
2022-10-02T07:15:37.093Z,4.13
2022-10-02T07:21:11.249Z,4.53
2022-10-02T07:26:47.738Z,4.53
2022-10-02T07:32:41.854Z,4.60
2022-10-02T07:38:43.368Z,4.93
2022-10-02T07:44:20.474Z,4.55
2022-10-02T07:49:52.791Z,4.75
2022-10-02T07:55:21.083Z,4.80
2022-10-02T08:00:50.961Z,5.18
2022-10-02T08:06:16.918Z,5.88
2022-10-02T08:11:50.333Z,6.70
2022-10-02T08:17:27.663Z,6.30
2022-10-02T08:22:54.693Z,6.72
2022-10-02T08:28:26.811Z,7.25
2022-10-02T08:33:51.999Z,9.00
2022-10-02T08:39:57.454Z,8.45
2022-10-02T08:45:58.025Z,8.88
2022-10-02T08:52:14.125Z,8.18
2022-10-02T08:58:13.072Z,9.88
2022-10-02T09:04:20.203Z,8.55
2022-10-02T09:10:29.954Z,9.82
2022-10-02T09:16:08.880Z,10.00
2022-10-02T09:21:51.377Z,9.73
2022-10-02T09:27:37.659Z,9.35
2022-10-02T09:33:40.974Z,9.52
2022-10-02T09:39:45.278Z,10.35
2022-10-02T09:45:45.738Z,10.60
2022-10-02T09:51:41.900Z,11.88
2022-10-02T09:57:43.966Z,10.63
2022-10-02T10:03:38.310Z,10.95
2022-10-02T10:09:40.942Z,10.68
2022-10-02T10:15:42.301Z,11.45
2022-10-02T10:21:51.974Z,10.32
2022-10-02T10:27:43.177Z,10.25
2022-10-02T10:33:41.285Z,10.05
2022-10-02T10:39:30.662Z,9.50
2022-10-02T10:45:28.097Z,9.32
2022-10-02T10:51:03.895Z,8.45
2022-10-02T10:56:38.893Z,7.82
2022-10-02T11:02:29.774Z,8.57
2022-10-02T11:08:10.977Z,8.45
2022-10-02T11:13:59.370Z,7.43
2022-10-02T11:19:42.950Z,7.57
2022-10-02T11:25:29.108Z,8.35
2022-10-02T11:31:06.728Z,8.52
2022-10-02T11:37:00.790Z,10.23
2022-10-02T11:43:03.320Z,10.57
2022-10-02T11:48:49.785Z,11.65
2022-10-02T11:54:29.517Z,10.52
2022-10-02T12:00:10.511Z,10.90
2022-10-02T12:05:55.360Z,10.85
2022-10-02T12:11:32.532Z,9.02
2022-10-02T12:17:13.156Z,9.30
2022-10-02T12:23:05.449Z,8.18
2022-10-02T12:28:39.685Z,8.90
2022-10-02T12:34:15.268Z,9.40
2022-10-02T12:39:48.172Z,10.40
2022-10-02T12:45:48.389Z,9.48
2022-10-02T12:51:35.648Z,8.10
2022-10-02T12:57:48.911Z,8.20
2022-10-02T13:04:01.025Z,9.18
2022-10-02T13:09:35.748Z,9.02
2022-10-02T13:15:27.404Z,9.13
2022-10-02T13:21:06.199Z,7.93
2022-10-02T13:26:38.138Z,8.13
2022-10-02T13:32:22.682Z,8.48
2022-10-02T13:38:01.089Z,7.72
2022-10-02T13:43:57.800Z,7.05
2022-10-02T13:49:38.048Z,6.60
2022-10-02T13:55:20.111Z,4.97
2022-10-02T14:01:00.160Z,3.88
2022-10-02T14:06:30.318Z,3.85
2022-10-02T14:12:10.477Z,3.40
2022-10-02T14:17:43.059Z,3.40
2022-10-02T14:23:22.000Z,3.40
2022-10-02T14:29:17.526Z,4.28
2022-10-02T14:35:09.664Z,5.35
2022-10-02T14:40:47.149Z,5.22
2022-10-02T14:46:36.125Z,6.97
2022-10-02T14:52:18.004Z,9.45
2022-10-02T14:57:57.993Z,12.45
2022-10-02T15:03:55.555Z,19.75
2022-10-02T15:09:24.677Z,14.90
2022-10-02T15:15:03.727Z,12.25
2022-10-02T15:20:40.570Z,6.70
2022-10-02T15:26:17.181Z,6.07
2022-10-02T15:32:04.082Z,5.63
2022-10-02T15:37:41.029Z,6.57
2022-10-02T15:43:27.222Z,5.20
2022-10-02T15:49:05.867Z,4.85
2022-10-02T15:54:51.077Z,9.10
2022-10-02T16:00:18.289Z,28.25
2022-10-02T16:05:51.704Z,24.73
2022-10-02T16:11:36.151Z,10.60
2022-10-02T16:17:26.850Z,8.63
2022-10-02T16:23:07.127Z,5.72
2022-10-02T16:28:51.106Z,3.70
2022-10-02T16:34:29.981Z,3.67
2022-10-02T16:40:00.735Z,3.75
2022-10-02T16:45:50.358Z,7.85
2022-10-02T16:51:26.775Z,4.80
2022-10-02T16:56:57.238Z,3.50
2022-10-02T17:02:34.713Z,2.97
2022-10-02T17:08:05.287Z,2.70
2022-10-02T17:13:37.448Z,2.58
2022-10-02T17:19:16.659Z,2.67
2022-10-02T17:24:53.912Z,2.83
2022-10-02T17:30:23.853Z,3.67
2022-10-02T17:35:56.296Z,3.38
2022-10-02T17:41:48.980Z,3.22
2022-10-02T17:47:32.787Z,4.85
2022-10-02T17:53:30.488Z,4.57
2022-10-02T17:59:07.134Z,3.53
2022-10-02T18:04:46.775Z,3.78
2022-10-02T18:10:25.057Z,3.40
2022-10-02T18:16:08.578Z,4.97
2022-10-02T18:21:42.301Z,7.50
2022-10-02T18:27:27.346Z,6.35
2022-10-02T18:33:09.607Z,13.88
2022-10-02T18:38:55.945Z,19.23
2022-10-02T18:44:45.195Z,16.98
2022-10-02T18:50:27.988Z,13.35
2022-10-02T18:56:05.568Z,10.13
2022-10-02T19:01:51.822Z,11.85
2022-10-02T19:07:20.721Z,8.88
2022-10-02T19:12:45.292Z,9.13
2022-10-02T19:18:19.140Z,10.50
2022-10-02T19:23:52.238Z,10.13
2022-10-02T19:29:27.378Z,5.18
2022-10-02T19:35:02.209Z,2.97
2022-10-02T19:40:34.418Z,2.55
2022-10-02T19:46:04.100Z,2.15
2022-10-02T19:51:43.492Z,1.77
2022-10-02T19:57:14.860Z,1.90
2022-10-02T20:02:45.483Z,1.30
2022-10-02T20:08:17.907Z,1.40
2022-10-02T20:13:49.251Z,1.65
2022-10-02T20:19:17.968Z,1.67
2022-10-02T20:24:51.433Z,1.80
2022-10-02T20:30:17.906Z,2.03
2022-10-02T20:35:46.126Z,2.20
2022-10-02T20:41:19.615Z,1.98
2022-10-02T20:47:22.056Z,2.00
2022-10-02T20:53:20.569Z,2.28
2022-10-02T20:59:08.374Z,1.70
2022-10-02T21:05:27.156Z,1.85
2022-10-02T21:11:15.076Z,2.50
2022-10-02T21:17:14.225Z,2.05
2022-10-02T21:23:09.074Z,2.45
2022-10-02T21:29:08.307Z,5.20
2022-10-02T21:34:48.115Z,4.88
2022-10-02T21:40:48.445Z,7.07
2022-10-02T21:46:45.222Z,5.25
2022-10-02T21:52:48.541Z,3.95
2022-10-02T21:58:45.704Z,3.58
2022-10-02T22:04:40.446Z,3.58
2022-10-02T22:10:15.607Z,7.45
2022-10-02T22:15:48.494Z,8.75
2022-10-02T22:21:38.095Z,8.18
2022-10-02T22:27:19.186Z,7.30
2022-10-02T22:33:12.152Z,8.85
2022-10-02T22:38:38.496Z,7.88
2022-10-02T22:44:10.341Z,11.75
2022-10-02T22:49:44.261Z,17.02
2022-10-02T22:55:15.393Z,11.07
2022-10-02T23:00:55.371Z,10.70
2022-10-02T23:06:30.619Z,15.20
2022-10-02T23:12:06.485Z,8.23
2022-10-02T23:17:38.662Z,4.57
2022-10-02T23:23:14.826Z,2.13
2022-10-02T23:28:46.949Z,1.80
2022-10-02T23:34:25.016Z,1.58
2022-10-02T23:39:59.076Z,1.25
2022-10-02T23:45:30.753Z,1.33
2022-10-02T23:51:05.523Z,1.25
2022-10-02T23:57:01.973Z,1.38
